TimeMST,TemperatureF,Dew PointF,Humidity,Sea Level PressureIn,VisibilityMPH,Wind Direction,Wind SpeedMPH,Gust SpeedMPH,PrecipitationIn,Events,Conditions,WindDirDegrees,DateUTC
12:15 AM,17.6,17.6,100,29.77,10.0,SE,4.6,-,N/A,,Clear,130,2012-12-12 07:15:00
12:35 AM,15.8,14.0,93,29.77,10.0,ESE,3.5,-,N/A,,Clear,110,2012-12-12 07:35:00
12:55 AM,15.8,15.8,100,29.75,10.0,SE,4.6,-,N/A,,Clear,130,2012-12-12 07:55:00
1:15 AM,14.0,14.0,100,29.74,10.0,East,4.6,-,N/A,,Scattered Clouds,100,2012-12-12 08:15:00
1:35 AM,15.8,15.8,100,29.74,10.0,Calm,Calm,-,N/A,,Scattered Clouds,0,2012-12-12 08:35:00
1:55 AM,15.8,14.0,93,29.74,10.0,Calm,Calm,-,N/A,,Mostly Cloudy,0,2012-12-12 08:55:00
2:15 AM,15.8,15.8,100,29.73,10.0,Calm,Calm,-,N/A,,Overcast,0,2012-12-12 09:15:00
2:35 AM,17.6,15.8,93,29.73,10.0,Calm,Calm,-,N/A,,Mostly Cloudy,0,2012-12-12 09:35:00
2:55 AM,17.6,17.6,100,29.72,10.0,ESE,3.5,-,N/A,,Mostly Cloudy,120,2012-12-12 09:55:00
3:15 AM,17.6,15.8,93,29.71,10.0,SE,4.6,-,N/A,,Overcast,130,2012-12-12 10:15:00
3:35 AM,19.4,19.4,100,29.71,10.0,SSE,4.6,-,N/A,,Mostly Cloudy,160,2012-12-12 10:35:00
3:55 AM,19.4,19.4,100,29.71,10.0,SE,4.6,-,N/A,,Overcast,140,2012-12-12 10:55:00
4:15 AM,19.4,17.6,93,29.71,10.0,ENE,5.8,-,N/A,,Mostly Cloudy,70,2012-12-12 11:15:00
4:35 AM,17.6,17.6,100,29.71,10.0,East,5.8,-,N/A,,Clear,90,2012-12-12 11:35:00
4:55 AM,19.4,17.6,93,29.70,10.0,ESE,5.8,-,N/A,,Clear,120,2012-12-12 11:55:00
5:15 AM,17.6,17.6,100,29.69,10.0,Calm,Calm,-,N/A,,Clear,0,2012-12-12 12:15:00
5:35 AM,19.4,17.6,93,29.69,10.0,Calm,Calm,-,N/A,,Clear,0,2012-12-12 12:35:00
5:55 AM,17.6,15.8,93,29.69,10.0,East,4.6,-,N/A,,Clear,100,2012-12-12 12:55:00
6:15 AM,15.8,15.8,100,29.69,10.0,SE,5.8,-,N/A,,Clear,130,2012-12-12 13:15:00
6:35 AM,17.6,17.6,100,29.70,10.0,Calm,Calm,-,N/A,,Clear,0,2012-12-12 13:35:00
6:55 AM,17.6,15.8,93,29.69,10.0,Calm,Calm,-,N/A,,Clear,0,2012-12-12 13:55:00
7:15 AM,10.4,8.6,92,29.69,10.0,Calm,Calm,-,N/A,,Scattered Clouds,0,2012-12-12 14:15:00
7:35 AM,8.6,5.0,85,29.69,10.0,WNW,3.5,-,N/A,,Scattered Clouds,300,2012-12-12 14:35:00
7:55 AM,10.4,8.6,92,29.70,10.0,West,3.5,-,N/A,,Mostly Cloudy,260,2012-12-12 14:55:00
8:15 AM,10.4,8.6,92,29.69,10.0,Calm,Calm,-,N/A,,Scattered Clouds,0,2012-12-12 15:15:00
8:35 AM,10.4,8.6,92,29.71,10.0,WNW,4.6,-,N/A,,Clear,300,2012-12-12 15:35:00
8:55 AM,10.4,10.4,100,29.71,10.0,Calm,Calm,-,N/A,,Clear,0,2012-12-12 15:55:00
9:15 AM,14.0,12.2,93,29.72,10.0,Calm,Calm,-,N/A,,Scattered Clouds,0,2012-12-12 16:15:00
9:35 AM,19.4,15.8,86,29.72,10.0,Calm,Calm,-,N/A,,Scattered Clouds,0,2012-12-12 16:35:00
9:55 AM,21.2,17.6,86,29.72,10.0,Calm,Calm,-,N/A,,Scattered Clouds,0,2012-12-12 16:55:00
10:15 AM,23.0,17.6,80,29.73,10.0,Calm,Calm,-,N/A,,Clear,0,2012-12-12 17:15:00
10:35 AM,26.6,19.4,74,29.74,10.0,Calm,Calm,-,N/A,,Clear,0,2012-12-12 17:35:00
10:55 AM,30.2,19.4,64,29.74,10.0,East,3.5,-,N/A,,Clear,100,2012-12-12 17:55:00
11:15 AM,30.2,19.4,64,29.73,10.0,Calm,Calm,-,N/A,,Scattered Clouds,0,2012-12-12 18:15:00
11:35 AM,32.0,21.2,64,29.73,10.0,SSW,11.5,-,N/A,,Mostly Cloudy,210,2012-12-12 18:35:00
11:55 AM,30.2,23.0,75,29.72,10.0,WSW,9.2,-,N/A,,Mostly Cloudy,240,2012-12-12 18:55:00
12:15 PM,32.0,23.0,69,29.72,10.0,SW,15.0,25.3,N/A,,Scattered Clouds,220,2012-12-12 19:15:00
12:35 PM,32.0,23.0,69,29.72,10.0,SW,15.0,19.6,N/A,,Scattered Clouds,230,2012-12-12 19:35:00
12:55 PM,32.0,23.0,69,29.72,10.0,SW,16.1,21.9,N/A,,Scattered Clouds,230,2012-12-12 19:55:00
1:15 PM,32.0,23.0,69,29.73,10.0,SW,15.0,-,N/A,,Clear,220,2012-12-12 20:15:00
1:35 PM,33.8,21.2,60,29.73,10.0,SW,18.4,24.2,N/A,,Scattered Clouds,230,2012-12-12 20:35:00
1:55 PM,33.8,21.2,60,29.74,10.0,SW,17.3,23.0,N/A,,Clear,230,2012-12-12 20:55:00
2:15 PM,33.8,19.4,56,29.74,10.0,WSW,17.3,24.2,N/A,,Scattered Clouds,250,2012-12-12 21:15:00
2:35 PM,33.8,21.2,60,29.74,10.0,WSW,15.0,21.9,N/A,,Scattered Clouds,240,2012-12-12 21:35:00
2:55 PM,33.8,19.4,56,29.75,10.0,WSW,16.1,19.6,N/A,,Clear,250,2012-12-12 21:55:00
3:15 PM,33.8,19.4,56,29.75,10.0,WSW,16.1,23.0,N/A,,Clear,250,2012-12-12 22:15:00
3:35 PM,32.0,19.4,60,29.77,10.0,WSW,11.5,-,N/A,,Clear,250,2012-12-12 22:35:00
3:55 PM,32.0,17.6,55,29.78,10.0,WSW,12.7,-,N/A,,Clear,250,2012-12-12 22:55:00
4:15 PM,30.2,17.6,60,29.79,10.0,West,9.2,-,N/A,,Clear,260,2012-12-12 23:15:00
4:35 PM,28.4,17.6,64,29.79,10.0,West,6.9,-,N/A,,Clear,260,2012-12-12 23:35:00
4:55 PM,24.8,15.8,69,29.80,10.0,West,4.6,-,N/A,,Clear,270,2012-12-12 23:55:00
5:15 PM,21.2,14.0,74,29.81,10.0,West,9.2,-,N/A,,Clear,280,2012-12-13 00:15:00
5:55 PM,17.6,12.2,79,29.83,10.0,West,5.8,-,N/A,,Clear,270,2012-12-13 00:55:00
6:15 PM,17.6,14.0,86,29.83,10.0,West,5.8,-,N/A,,Scattered Clouds,270,2012-12-13 01:15:00
6:35 PM,17.6,14.0,86,29.84,10.0,West,3.5,-,N/A,,Clear,280,2012-12-13 01:35:00
6:55 PM,17.6,15.8,93,29.84,10.0,WNW,3.5,-,N/A,,Clear,290,2012-12-13 01:55:00
7:15 PM,15.8,14.0,93,29.85,10.0,Calm,Calm,-,N/A,,Clear,0,2012-12-13 02:15:00
7:35 PM,15.8,12.2,86,29.85,10.0,Calm,Calm,-,N/A,,Clear,0,2012-12-13 02:35:00
7:55 PM,14.0,12.2,93,29.85,10.0,WNW,4.6,-,N/A,,Clear,300,2012-12-13 02:55:00
8:15 PM,10.4,10.4,100,29.85,10.0,West,5.8,-,N/A,,Clear,270,2012-12-13 03:15:00
8:35 PM,14.0,12.2,93,29.85,10.0,Calm,Calm,-,N/A,,Mostly Cloudy,0,2012-12-13 03:35:00
8:55 PM,12.2,10.4,92,29.86,10.0,SW,4.6,-,N/A,,Scattered Clouds,230,2012-12-13 03:55:00
9:15 PM,12.2,10.4,92,29.87,10.0,West,4.6,-,N/A,,Clear,270,2012-12-13 04:15:00
9:35 PM,10.4,10.4,100,29.87,10.0,WNW,5.8,-,N/A,,Clear,290,2012-12-13 04:35:00
9:55 PM,12.2,10.4,92,29.87,10.0,NNW,4.6,-,N/A,,Clear,330,2012-12-13 04:55:00
10:15 PM,10.4,10.4,100,29.87,10.0,Calm,Calm,-,N/A,,Clear,0,2012-12-13 05:15:00
10:35 PM,12.2,10.4,92,29.88,10.0,WNW,3.5,-,N/A,,Clear,290,2012-12-13 05:35:00
10:55 PM,10.4,10.4,100,29.88,10.0,West,3.5,-,N/A,,Clear,280,2012-12-13 05:55:00
11:15 PM,12.2,10.4,92,29.89,10.0,NW,4.6,-,N/A,,Clear,310,2012-12-13 06:15:00
11:35 PM,12.2,10.4,92,29.89,10.0,West,3.5,-,N/A,,Scattered Clouds,270,2012-12-13 06:35:00
11:55 PM,12.2,12.2,100,29.89,10.0,Calm,Calm,-,N/A,,Mostly Cloudy,0,2012-12-13 06:55:00